sensor_id;sensor_type;location;lat;lon;timestamp;P1;durP1;ratioP1;P2;durP2;ratioP2
76459;SDS011;65299;46.084;18.762;2023-03-14T00:00:36;53.33;;;29.23;;
76459;SDS011;65299;46.084;18.762;2023-03-14T00:03:37;49.90;;;25.87;;
76459;SDS011;65299;46.084;18.762;2023-03-14T00:06:37;33.23;;;17.97;;
76459;SDS011;65299;46.084;18.762;2023-03-14T00:09:38;36.88;;;18.02;;
76459;SDS011;65299;46.084;18.762;2023-03-14T00:12:39;31.88;;;16.40;;
76459;SDS011;65299;46.084;18.762;2023-03-14T00:15:40;29.47;;;15.20;;
76459;SDS011;65299;46.084;18.762;2023-03-14T00:18:41;51.80;;;25.58;;
76459;SDS011;65299;46.084;18.762;2023-03-14T00:21:41;63.50;;;33.97;;
76459;SDS011;65299;46.084;18.762;2023-03-14T00:24:42;61.00;;;30.87;;
76459;SDS011;65299;46.084;18.762;2023-03-14T00:27:42;62.13;;;33.00;;
76459;SDS011;65299;46.084;18.762;2023-03-14T00:30:43;62.33;;;30.10;;
76459;SDS011;65299;46.084;18.762;2023-03-14T00:33:44;28.40;;;13.47;;
76459;SDS011;65299;46.084;18.762;2023-03-14T00:36:45;30.00;;;14.32;;
76459;SDS011;65299;46.084;18.762;2023-03-14T00:39:45;24.73;;;12.57;;
76459;SDS011;65299;46.084;18.762;2023-03-14T00:42:46;26.00;;;12.40;;
76459;SDS011;65299;46.084;18.762;2023-03-14T00:45:46;24.83;;;11.80;;
76459;SDS011;65299;46.084;18.762;2023-03-14T00:48:47;28.95;;;13.65;;
76459;SDS011;65299;46.084;18.762;2023-03-14T00:51:47;22.00;;;11.77;;
76459;SDS011;65299;46.084;18.762;2023-03-14T00:54:48;26.13;;;12.45;;
76459;SDS011;65299;46.084;18.762;2023-03-14T00:57:48;18.07;;;9.30;;
76459;SDS011;65299;46.084;18.762;2023-03-14T01:00:49;21.63;;;10.27;;
76459;SDS011;65299;46.084;18.762;2023-03-14T01:03:53;21.95;;;10.70;;
76459;SDS011;65299;46.084;18.762;2023-03-14T01:06:56;21.93;;;10.10;;
76459;SDS011;65299;46.084;18.762;2023-03-14T01:09:56;20.95;;;9.60;;
76459;SDS011;65299;46.084;18.762;2023-03-14T01:12:57;20.23;;;9.10;;
76459;SDS011;65299;46.084;18.762;2023-03-14T01:16:00;17.98;;;8.55;;
76459;SDS011;65299;46.084;18.762;2023-03-14T01:19:03;16.67;;;8.10;;
76459;SDS011;65299;46.084;18.762;2023-03-14T01:22:03;15.10;;;6.30;;
76459;SDS011;65299;46.084;18.762;2023-03-14T01:25:04;16.35;;;7.78;;
76459;SDS011;65299;46.084;18.762;2023-03-14T01:28:06;17.37;;;7.73;;
76459;SDS011;65299;46.084;18.762;2023-03-14T01:31:08;19.45;;;7.57;;
76459;SDS011;65299;46.084;18.762;2023-03-14T01:34:10;16.73;;;7.57;;
76459;SDS011;65299;46.084;18.762;2023-03-14T01:37:10;17.83;;;8.40;;
76459;SDS011;65299;46.084;18.762;2023-03-14T01:40:12;21.70;;;7.60;;
76459;SDS011;65299;46.084;18.762;2023-03-14T01:43:17;16.40;;;8.38;;
76459;SDS011;65299;46.084;18.762;2023-03-14T01:49:39;16.67;;;8.13;;
76459;SDS011;65299;46.084;18.762;2023-03-14T01:52:44;17.77;;;7.93;;
76459;SDS011;65299;46.084;18.762;2023-03-14T01:55:52;18.02;;;6.97;;
76459;SDS011;65299;46.084;18.762;2023-03-14T01:58:56;14.73;;;7.67;;
76459;SDS011;65299;46.084;18.762;2023-03-14T02:01:59;15.50;;;7.45;;
76459;SDS011;65299;46.084;18.762;2023-03-14T02:05:01;14.20;;;6.60;;
76459;SDS011;65299;46.084;18.762;2023-03-14T02:08:04;17.00;;;6.90;;
76459;SDS011;65299;46.084;18.762;2023-03-14T02:11:07;12.13;;;5.25;;
76459;SDS011;65299;46.084;18.762;2023-03-14T02:14:08;14.57;;;6.27;;
76459;SDS011;65299;46.084;18.762;2023-03-14T02:17:14;13.02;;;6.10;;
76459;SDS011;65299;46.084;18.762;2023-03-14T02:20:21;16.90;;;7.47;;
76459;SDS011;65299;46.084;18.762;2023-03-14T02:27:18;17.20;;;6.20;;
76459;SDS011;65299;46.084;18.762;2023-03-14T02:30:21;15.97;;;6.57;;
76459;SDS011;65299;46.084;18.762;2023-03-14T02:33:23;12.07;;;6.40;;
76459;SDS011;65299;46.084;18.762;2023-03-14T02:36:24;16.13;;;6.72;;
76459;SDS011;65299;46.084;18.762;2023-03-14T02:39:27;12.97;;;5.87;;
76459;SDS011;65299;46.084;18.762;2023-03-14T02:42:39;14.98;;;6.68;;
76459;SDS011;65299;46.084;18.762;2023-03-14T02:45:44;12.02;;;6.47;;
76459;SDS011;65299;46.084;18.762;2023-03-14T02:48:48;13.47;;;6.37;;
76459;SDS011;65299;46.084;18.762;2023-03-14T02:51:54;12.80;;;6.43;;
76459;SDS011;65299;46.084;18.762;2023-03-14T02:54:54;13.83;;;6.40;;
76459;SDS011;65299;46.084;18.762;2023-03-14T02:57:55;14.03;;;6.70;;
76459;SDS011;65299;46.084;18.762;2023-03-14T03:00:55;12.30;;;6.80;;
76459;SDS011;65299;46.084;18.762;2023-03-14T03:03:56;17.08;;;6.60;;
76459;SDS011;65299;46.084;18.762;2023-03-14T03:06:56;13.40;;;7.10;;
76459;SDS011;65299;46.084;18.762;2023-03-14T03:09:57;15.57;;;6.77;;
76459;SDS011;65299;46.084;18.762;2023-03-14T03:12:58;13.43;;;6.75;;
76459;SDS011;65299;46.084;18.762;2023-03-14T03:15:58;13.50;;;6.10;;
76459;SDS011;65299;46.084;18.762;2023-03-14T03:18:59;13.90;;;6.75;;
76459;SDS011;65299;46.084;18.762;2023-03-14T03:21:59;16.30;;;6.63;;
76459;SDS011;65299;46.084;18.762;2023-03-14T03:25:00;15.68;;;7.03;;
76459;SDS011;65299;46.084;18.762;2023-03-14T03:28:00;13.67;;;7.20;;
76459;SDS011;65299;46.084;18.762;2023-03-14T03:31:09;15.38;;;6.63;;
76459;SDS011;65299;46.084;18.762;2023-03-14T03:34:10;16.17;;;7.10;;
76459;SDS011;65299;46.084;18.762;2023-03-14T03:37:11;17.00;;;7.65;;
76459;SDS011;65299;46.084;18.762;2023-03-14T03:40:12;12.80;;;7.23;;
76459;SDS011;65299;46.084;18.762;2023-03-14T03:43:12;15.43;;;7.07;;
76459;SDS011;65299;46.084;18.762;2023-03-14T03:46:13;12.77;;;6.90;;
76459;SDS011;65299;46.084;18.762;2023-03-14T03:49:13;14.32;;;6.82;;
76459;SDS011;65299;46.084;18.762;2023-03-14T03:52:14;15.23;;;7.47;;
76459;SDS011;65299;46.084;18.762;2023-03-14T03:55:14;20.70;;;8.50;;
76459;SDS011;65299;46.084;18.762;2023-03-14T03:58:15;17.67;;;8.90;;
76459;SDS011;65299;46.084;18.762;2023-03-14T04:01:15;16.80;;;8.50;;
76459;SDS011;65299;46.084;18.762;2023-03-14T04:04:16;15.57;;;8.00;;
76459;SDS011;65299;46.084;18.762;2023-03-14T04:07:16;19.07;;;7.50;;
76459;SDS011;65299;46.084;18.762;2023-03-14T04:10:17;15.30;;;7.57;;
76459;SDS011;65299;46.084;18.762;2023-03-14T04:13:17;17.53;;;6.87;;
76459;SDS011;65299;46.084;18.762;2023-03-14T04:16:19;14.70;;;7.40;;
76459;SDS011;65299;46.084;18.762;2023-03-14T04:19:24;16.63;;;8.05;;
76459;SDS011;65299;46.084;18.762;2023-03-14T04:22:24;15.27;;;6.90;;
76459;SDS011;65299;46.084;18.762;2023-03-14T04:25:25;15.55;;;7.20;;
76459;SDS011;65299;46.084;18.762;2023-03-14T04:28:25;16.13;;;8.00;;
76459;SDS011;65299;46.084;18.762;2023-03-14T04:31:26;17.40;;;8.07;;
76459;SDS011;65299;46.084;18.762;2023-03-14T04:34:26;15.25;;;8.15;;
76459;SDS011;65299;46.084;18.762;2023-03-14T04:37:26;16.37;;;7.40;;
76459;SDS011;65299;46.084;18.762;2023-03-14T04:40:27;18.13;;;7.47;;
76459;SDS011;65299;46.084;18.762;2023-03-14T04:43:27;14.00;;;7.82;;
76459;SDS011;65299;46.084;18.762;2023-03-14T04:46:28;17.33;;;6.83;;
76459;SDS011;65299;46.084;18.762;2023-03-14T04:49:29;12.48;;;7.07;;
76459;SDS011;65299;46.084;18.762;2023-03-14T04:52:29;14.37;;;6.80;;
76459;SDS011;65299;46.084;18.762;2023-03-14T04:55:30;14.33;;;7.10;;
76459;SDS011;65299;46.084;18.762;2023-03-14T04:58:32;15.98;;;7.28;;
76459;SDS011;65299;46.084;18.762;2023-03-14T05:01:32;13.10;;;6.93;;
76459;SDS011;65299;46.084;18.762;2023-03-14T05:04:33;13.20;;;7.68;;
76459;SDS011;65299;46.084;18.762;2023-03-14T05:07:33;15.60;;;8.10;;
76459;SDS011;65299;46.084;18.762;2023-03-14T05:10:34;20.80;;;8.50;;
76459;SDS011;65299;46.084;18.762;2023-03-14T05:13:35;21.40;;;8.57;;
76459;SDS011;65299;46.084;18.762;2023-03-14T05:16:35;24.63;;;8.80;;
76459;SDS011;65299;46.084;18.762;2023-03-14T05:19:35;16.33;;;7.55;;
76459;SDS011;65299;46.084;18.762;2023-03-14T05:22:36;13.00;;;6.90;;
76459;SDS011;65299;46.084;18.762;2023-03-14T05:25:36;14.40;;;6.90;;
76459;SDS011;65299;46.084;18.762;2023-03-14T05:28:37;20.38;;;6.78;;
76459;SDS011;65299;46.084;18.762;2023-03-14T05:31:37;22.23;;;7.57;;
76459;SDS011;65299;46.084;18.762;2023-03-14T05:34:38;14.10;;;7.47;;
76459;SDS011;65299;46.084;18.762;2023-03-14T05:37:39;14.90;;;7.15;;
76459;SDS011;65299;46.084;18.762;2023-03-14T05:40:39;16.77;;;6.97;;
76459;SDS011;65299;46.084;18.762;2023-03-14T05:43:40;16.02;;;6.97;;
76459;SDS011;65299;46.084;18.762;2023-03-14T05:46:40;17.00;;;6.40;;
76459;SDS011;65299;46.084;18.762;2023-03-14T05:49:41;19.47;;;7.70;;
76459;SDS011;65299;46.084;18.762;2023-03-14T05:52:41;19.50;;;9.13;;
76459;SDS011;65299;46.084;18.762;2023-03-14T05:55:42;21.23;;;8.73;;
76459;SDS011;65299;46.084;18.762;2023-03-14T05:58:42;17.50;;;7.97;;
76459;SDS011;65299;46.084;18.762;2023-03-14T06:01:43;14.73;;;7.47;;
76459;SDS011;65299;46.084;18.762;2023-03-14T06:04:43;13.23;;;6.83;;
76459;SDS011;65299;46.084;18.762;2023-03-14T06:07:44;14.50;;;6.07;;
76459;SDS011;65299;46.084;18.762;2023-03-14T06:10:44;11.73;;;5.95;;
76459;SDS011;65299;46.084;18.762;2023-03-14T06:13:45;12.97;;;6.37;;
76459;SDS011;65299;46.084;18.762;2023-03-14T06:16:46;12.25;;;5.60;;
76459;SDS011;65299;46.084;18.762;2023-03-14T06:19:49;31.30;;;15.82;;
76459;SDS011;65299;46.084;18.762;2023-03-14T06:22:49;16.10;;;8.23;;
76459;SDS011;65299;46.084;18.762;2023-03-14T06:25:49;15.23;;;7.27;;
76459;SDS011;65299;46.084;18.762;2023-03-14T06:28:50;17.70;;;7.60;;
76459;SDS011;65299;46.084;18.762;2023-03-14T06:31:51;18.13;;;7.47;;
76459;SDS011;65299;46.084;18.762;2023-03-14T06:34:51;25.70;;;8.70;;
76459;SDS011;65299;46.084;18.762;2023-03-14T06:37:53;16.27;;;8.40;;
76459;SDS011;65299;46.084;18.762;2023-03-14T06:40:53;18.60;;;7.57;;
76459;SDS011;65299;46.084;18.762;2023-03-14T06:43:53;15.68;;;7.53;;
76459;SDS011;65299;46.084;18.762;2023-03-14T06:46:54;14.17;;;7.23;;
76459;SDS011;65299;46.084;18.762;2023-03-14T06:49:54;13.30;;;6.70;;
76459;SDS011;65299;46.084;18.762;2023-03-14T06:52:55;12.65;;;6.22;;
76459;SDS011;65299;46.084;18.762;2023-03-14T06:55:55;16.30;;;6.27;;
76459;SDS011;65299;46.084;18.762;2023-03-14T06:58:56;11.10;;;6.03;;
76459;SDS011;65299;46.084;18.762;2023-03-14T07:01:56;14.45;;;4.70;;
76459;SDS011;65299;46.084;18.762;2023-03-14T07:04:57;11.87;;;4.43;;
76459;SDS011;65299;46.084;18.762;2023-03-14T07:07:57;12.23;;;5.03;;
76459;SDS011;65299;46.084;18.762;2023-03-14T07:10:58;15.48;;;5.43;;
76459;SDS011;65299;46.084;18.762;2023-03-14T07:13:58;13.57;;;5.50;;
76459;SDS011;65299;46.084;18.762;2023-03-14T07:16:59;15.00;;;5.73;;
76459;SDS011;65299;46.084;18.762;2023-03-14T07:19:59;16.85;;;6.97;;
76459;SDS011;65299;46.084;18.762;2023-03-14T07:23:00;10.40;;;5.57;;
76459;SDS011;65299;46.084;18.762;2023-03-14T07:26:03;9.93;;;4.95;;
76459;SDS011;65299;46.084;18.762;2023-03-14T07:29:03;8.07;;;4.60;;
76459;SDS011;65299;46.084;18.762;2023-03-14T07:32:04;11.20;;;4.87;;
76459;SDS011;65299;46.084;18.762;2023-03-14T07:35:04;8.80;;;4.50;;
76459;SDS011;65299;46.084;18.762;2023-03-14T07:38:05;9.15;;;4.13;;
76459;SDS011;65299;46.084;18.762;2023-03-14T07:41:06;10.40;;;4.10;;
76459;SDS011;65299;46.084;18.762;2023-03-14T07:44:06;10.10;;;4.72;;
76459;SDS011;65299;46.084;18.762;2023-03-14T07:47:07;11.00;;;5.60;;
76459;SDS011;65299;46.084;18.762;2023-03-14T07:50:08;10.30;;;4.55;;
76459;SDS011;65299;46.084;18.762;2023-03-14T07:53:10;10.70;;;4.30;;
76459;SDS011;65299;46.084;18.762;2023-03-14T07:56:10;8.02;;;3.65;;
76459;SDS011;65299;46.084;18.762;2023-03-14T07:59:11;9.33;;;4.13;;
76459;SDS011;65299;46.084;18.762;2023-03-14T08:02:12;7.85;;;3.95;;
76459;SDS011;65299;46.084;18.762;2023-03-14T08:05:13;10.50;;;3.90;;
76459;SDS011;65299;46.084;18.762;2023-03-14T08:08:13;7.15;;;3.80;;
76459;SDS011;65299;46.084;18.762;2023-03-14T08:11:14;5.90;;;3.73;;
76459;SDS011;65299;46.084;18.762;2023-03-14T08:14:14;7.55;;;3.78;;
76459;SDS011;65299;46.084;18.762;2023-03-14T08:17:15;8.63;;;3.40;;
76459;SDS011;65299;46.084;18.762;2023-03-14T08:20:15;8.33;;;3.73;;
76459;SDS011;65299;46.084;18.762;2023-03-14T08:23:16;8.32;;;3.65;;
76459;SDS011;65299;46.084;18.762;2023-03-14T08:26:17;7.60;;;3.27;;
76459;SDS011;65299;46.084;18.762;2023-03-14T08:29:17;8.60;;;3.80;;
76459;SDS011;65299;46.084;18.762;2023-03-14T08:32:18;7.00;;;3.30;;
76459;SDS011;65299;46.084;18.762;2023-03-14T08:35:20;5.68;;;2.92;;
76459;SDS011;65299;46.084;18.762;2023-03-14T08:38:20;5.67;;;2.80;;
76459;SDS011;65299;46.084;18.762;2023-03-14T08:41:21;4.53;;;2.53;;
76459;SDS011;65299;46.084;18.762;2023-03-14T08:44:21;4.40;;;2.37;;
76459;SDS011;65299;46.084;18.762;2023-03-14T08:47:22;6.23;;;2.67;;
76459;SDS011;65299;46.084;18.762;2023-03-14T08:50:22;6.97;;;3.00;;
76459;SDS011;65299;46.084;18.762;2023-03-14T08:53:24;5.32;;;2.33;;
76459;SDS011;65299;46.084;18.762;2023-03-14T08:56:24;4.50;;;2.60;;
76459;SDS011;65299;46.084;18.762;2023-03-14T08:59:25;10.77;;;2.70;;
76459;SDS011;65299;46.084;18.762;2023-03-14T09:02:25;10.37;;;2.57;;
76459;SDS011;65299;46.084;18.762;2023-03-14T09:05:26;14.15;;;2.60;;
76459;SDS011;65299;46.084;18.762;2023-03-14T09:08:26;6.40;;;2.90;;
76459;SDS011;65299;46.084;18.762;2023-03-14T09:11:27;7.97;;;3.80;;
76459;SDS011;65299;46.084;18.762;2023-03-14T09:14:27;8.30;;;3.60;;
76459;SDS011;65299;46.084;18.762;2023-03-14T09:17:28;5.60;;;2.73;;
76459;SDS011;65299;46.084;18.762;2023-03-14T09:20:29;6.10;;;2.85;;
76459;SDS011;65299;46.084;18.762;2023-03-14T09:23:29;8.90;;;2.30;;
76459;SDS011;65299;46.084;18.762;2023-03-14T09:26:30;6.53;;;2.60;;
76459;SDS011;65299;46.084;18.762;2023-03-14T09:29:31;7.65;;;2.50;;
76459;SDS011;65299;46.084;18.762;2023-03-14T09:32:31;5.97;;;2.65;;
76459;SDS011;65299;46.084;18.762;2023-03-14T09:35:33;4.30;;;2.43;;
76459;SDS011;65299;46.084;18.762;2023-03-14T09:38:34;8.00;;;3.38;;
76459;SDS011;65299;46.084;18.762;2023-03-14T09:41:36;7.30;;;2.53;;
76459;SDS011;65299;46.084;18.762;2023-03-14T09:48:31;6.22;;;2.85;;
76459;SDS011;65299;46.084;18.762;2023-03-14T09:51:33;6.57;;;2.47;;
76459;SDS011;65299;46.084;18.762;2023-03-14T09:54:38;5.00;;;2.50;;
76459;SDS011;65299;46.084;18.762;2023-03-14T09:57:43;5.78;;;2.40;;
76459;SDS011;65299;46.084;18.762;2023-03-14T10:00:45;6.45;;;2.92;;
76459;SDS011;65299;46.084;18.762;2023-03-14T10:03:46;7.53;;;2.45;;
76459;SDS011;65299;46.084;18.762;2023-03-14T10:06:47;5.93;;;3.00;;
76459;SDS011;65299;46.084;18.762;2023-03-14T10:09:49;4.97;;;2.70;;
76459;SDS011;65299;46.084;18.762;2023-03-14T10:12:57;4.80;;;2.40;;
76459;SDS011;65299;46.084;18.762;2023-03-14T10:16:18;5.20;;;2.33;;
76459;SDS011;65299;46.084;18.762;2023-03-14T10:19:29;5.07;;;2.22;;
76459;SDS011;65299;46.084;18.762;2023-03-14T10:22:30;6.40;;;2.50;;
76459;SDS011;65299;46.084;18.762;2023-03-14T10:25:32;6.40;;;2.60;;
76459;SDS011;65299;46.084;18.762;2023-03-14T10:28:39;9.30;;;3.05;;
76459;SDS011;65299;46.084;18.762;2023-03-14T10:35:03;6.50;;;2.60;;
76459;SDS011;65299;46.084;18.762;2023-03-14T10:38:10;6.60;;;2.38;;
76459;SDS011;65299;46.084;18.762;2023-03-14T10:41:46;7.90;;;2.60;;
76459;SDS011;65299;46.084;18.762;2023-03-14T10:44:40;5.50;;;2.28;;
76459;SDS011;65299;46.084;18.762;2023-03-14T10:47:48;7.03;;;1.93;;
76459;SDS011;65299;46.084;18.762;2023-03-14T10:54:20;13.98;;;3.22;;
76459;SDS011;65299;46.084;18.762;2023-03-14T10:57:24;6.45;;;2.35;;
76459;SDS011;65299;46.084;18.762;2023-03-14T11:00:25;22.40;;;6.55;;
76459;SDS011;65299;46.084;18.762;2023-03-14T11:03:26;13.63;;;3.90;;
76459;SDS011;65299;46.084;18.762;2023-03-14T11:16:37;8.90;;;4.20;;
76459;SDS011;65299;46.084;18.762;2023-03-14T11:20:32;4.43;;;2.88;;
76459;SDS011;65299;46.084;18.762;2023-03-14T11:23:17;7.75;;;4.90;;
76459;SDS011;65299;46.084;18.762;2023-03-14T11:36:15;6.47;;;2.88;;
76459;SDS011;65299;46.084;18.762;2023-03-14T11:39:21;19.45;;;5.55;;
76459;SDS011;65299;46.084;18.762;2023-03-14T11:42:25;7.77;;;3.40;;
76459;SDS011;65299;46.084;18.762;2023-03-14T11:45:36;7.55;;;5.07;;
76459;SDS011;65299;46.084;18.762;2023-03-14T11:49:03;7.70;;;3.05;;
76459;SDS011;65299;46.084;18.762;2023-03-14T11:52:16;3.38;;;1.42;;
76459;SDS011;65299;46.084;18.762;2023-03-14T11:58:33;6.13;;;2.90;;
76459;SDS011;65299;46.084;18.762;2023-03-14T12:01:45;11.25;;;3.65;;
76459;SDS011;65299;46.084;18.762;2023-03-14T12:11:10;4.18;;;1.80;;
76459;SDS011;65299;46.084;18.762;2023-03-14T12:14:32;6.30;;;1.90;;
76459;SDS011;65299;46.084;18.762;2023-03-14T12:17:41;3.47;;;1.58;;
76459;SDS011;65299;46.084;18.762;2023-03-14T12:20:49;2.92;;;1.65;;
76459;SDS011;65299;46.084;18.762;2023-03-14T12:23:56;7.10;;;1.90;;
76459;SDS011;65299;46.084;18.762;2023-03-14T12:26:59;8.52;;;1.70;;
76459;SDS011;65299;46.084;18.762;2023-03-14T12:30:00;7.77;;;1.43;;
76459;SDS011;65299;46.084;18.762;2023-03-14T12:36:31;4.15;;;1.48;;
76459;SDS011;65299;46.084;18.762;2023-03-14T12:43:00;4.82;;;1.40;;
76459;SDS011;65299;46.084;18.762;2023-03-14T12:46:07;1.83;;;1.10;;
76459;SDS011;65299;46.084;18.762;2023-03-14T12:49:17;10.77;;;2.25;;
76459;SDS011;65299;46.084;18.762;2023-03-14T12:55:48;2.33;;;1.30;;
76459;SDS011;65299;46.084;18.762;2023-03-14T13:02:24;3.08;;;1.33;;
76459;SDS011;65299;46.084;18.762;2023-03-14T13:05:27;2.97;;;1.15;;
76459;SDS011;65299;46.084;18.762;2023-03-14T13:08:37;5.03;;;1.80;;
76459;SDS011;65299;46.084;18.762;2023-03-14T13:11:39;7.60;;;2.58;;
76459;SDS011;65299;46.084;18.762;2023-03-14T13:14:47;2.72;;;1.60;;
76459;SDS011;65299;46.084;18.762;2023-03-14T13:17:49;3.20;;;1.15;;
76459;SDS011;65299;46.084;18.762;2023-03-14T13:20:54;2.70;;;1.13;;
76459;SDS011;65299;46.084;18.762;2023-03-14T13:27:04;1.63;;;1.20;;
76459;SDS011;65299;46.084;18.762;2023-03-14T13:33:17;2.08;;;1.08;;
76459;SDS011;65299;46.084;18.762;2023-03-14T13:36:21;2.97;;;0.80;;
76459;SDS011;65299;46.084;18.762;2023-03-14T13:39:23;3.77;;;1.00;;
76459;SDS011;65299;46.084;18.762;2023-03-14T13:42:28;2.72;;;0.98;;
76459;SDS011;65299;46.084;18.762;2023-03-14T13:45:29;3.65;;;1.20;;
76459;SDS011;65299;46.084;18.762;2023-03-14T13:48:30;3.53;;;1.10;;
76459;SDS011;65299;46.084;18.762;2023-03-14T13:51:33;7.25;;;1.98;;
76459;SDS011;65299;46.084;18.762;2023-03-14T13:54:34;3.33;;;2.07;;
76459;SDS011;65299;46.084;18.762;2023-03-14T13:57:50;6.90;;;4.43;;
76459;SDS011;65299;46.084;18.762;2023-03-14T14:00:57;2.90;;;1.57;;
76459;SDS011;65299;46.084;18.762;2023-03-14T14:04:07;3.83;;;2.33;;
76459;SDS011;65299;46.084;18.762;2023-03-14T14:07:15;3.63;;;1.70;;
76459;SDS011;65299;46.084;18.762;2023-03-14T14:10:20;3.58;;;1.73;;
76459;SDS011;65299;46.084;18.762;2023-03-14T14:13:22;3.53;;;1.80;;
76459;SDS011;65299;46.084;18.762;2023-03-14T14:16:24;9.23;;;1.93;;
76459;SDS011;65299;46.084;18.762;2023-03-14T14:19:29;4.88;;;1.80;;
76459;SDS011;65299;46.084;18.762;2023-03-14T14:22:32;3.67;;;1.65;;
76459;SDS011;65299;46.084;18.762;2023-03-14T14:25:33;4.75;;;2.05;;
76459;SDS011;65299;46.084;18.762;2023-03-14T14:28:34;6.87;;;2.70;;
76459;SDS011;65299;46.084;18.762;2023-03-14T14:31:38;5.88;;;2.60;;
76459;SDS011;65299;46.084;18.762;2023-03-14T14:34:42;6.37;;;2.63;;
76459;SDS011;65299;46.084;18.762;2023-03-14T14:37:49;5.22;;;2.17;;
76459;SDS011;65299;46.084;18.762;2023-03-14T14:40:51;3.70;;;1.80;;
76459;SDS011;65299;46.084;18.762;2023-03-14T14:43:55;5.57;;;2.23;;
76459;SDS011;65299;46.084;18.762;2023-03-14T14:46:57;5.45;;;2.45;;
76459;SDS011;65299;46.084;18.762;2023-03-14T14:49:59;11.48;;;4.28;;
76459;SDS011;65299;46.084;18.762;2023-03-14T14:53:18;6.00;;;2.15;;
76459;SDS011;65299;46.084;18.762;2023-03-14T14:56:27;4.63;;;3.25;;
76459;SDS011;65299;46.084;18.762;2023-03-14T14:59:28;5.27;;;2.77;;
76459;SDS011;65299;46.084;18.762;2023-03-14T15:02:51;3.72;;;2.13;;
76459;SDS011;65299;46.084;18.762;2023-03-14T15:05:53;4.28;;;2.10;;
76459;SDS011;65299;46.084;18.762;2023-03-14T15:08:55;4.13;;;1.90;;
76459;SDS011;65299;46.084;18.762;2023-03-14T15:11:55;3.30;;;1.63;;
76459;SDS011;65299;46.084;18.762;2023-03-14T15:14:56;2.90;;;1.60;;
76459;SDS011;65299;46.084;18.762;2023-03-14T15:17:57;1.58;;;1.20;;
76459;SDS011;65299;46.084;18.762;2023-03-14T15:20:58;2.70;;;1.47;;
76459;SDS011;65299;46.084;18.762;2023-03-14T15:23:58;4.18;;;2.20;;
76459;SDS011;65299;46.084;18.762;2023-03-14T15:26:59;9.17;;;3.80;;
76459;SDS011;65299;46.084;18.762;2023-03-14T15:29:59;12.50;;;4.53;;
76459;SDS011;65299;46.084;18.762;2023-03-14T15:33:00;10.97;;;4.93;;
76459;SDS011;65299;46.084;18.762;2023-03-14T15:36:01;11.50;;;5.13;;
76459;SDS011;65299;46.084;18.762;2023-03-14T15:39:02;14.60;;;6.05;;
76459;SDS011;65299;46.084;18.762;2023-03-14T15:42:04;12.85;;;5.30;;
76459;SDS011;65299;46.084;18.762;2023-03-14T15:45:04;11.37;;;4.90;;
76459;SDS011;65299;46.084;18.762;2023-03-14T15:48:06;17.05;;;5.70;;
76459;SDS011;65299;46.084;18.762;2023-03-14T15:51:06;24.02;;;8.75;;
76459;SDS011;65299;46.084;18.762;2023-03-14T15:54:07;18.60;;;7.63;;
76459;SDS011;65299;46.084;18.762;2023-03-14T15:57:09;29.10;;;11.80;;
76459;SDS011;65299;46.084;18.762;2023-03-14T16:00:14;26.05;;;11.98;;
76459;SDS011;65299;46.084;18.762;2023-03-14T16:03:21;28.48;;;8.38;;
76459;SDS011;65299;46.084;18.762;2023-03-14T16:06:21;28.47;;;9.90;;
76459;SDS011;65299;46.084;18.762;2023-03-14T16:09:22;31.13;;;14.03;;
76459;SDS011;65299;46.084;18.762;2023-03-14T16:12:24;31.63;;;15.13;;
76459;SDS011;65299;46.084;18.762;2023-03-14T16:15:24;53.33;;;24.63;;
76459;SDS011;65299;46.084;18.762;2023-03-14T16:18:28;47.90;;;22.35;;
76459;SDS011;65299;46.084;18.762;2023-03-14T16:21:30;79.72;;;37.83;;
76459;SDS011;65299;46.084;18.762;2023-03-14T16:24:32;57.75;;;26.33;;
76459;SDS011;65299;46.084;18.762;2023-03-14T16:27:33;79.43;;;35.03;;
76459;SDS011;65299;46.084;18.762;2023-03-14T16:30:33;83.50;;;35.37;;
76459;SDS011;65299;46.084;18.762;2023-03-14T16:33:34;75.27;;;35.90;;
76459;SDS011;65299;46.084;18.762;2023-03-14T16:36:36;72.03;;;32.97;;
76459;SDS011;65299;46.084;18.762;2023-03-14T16:39:36;63.77;;;30.23;;
76459;SDS011;65299;46.084;18.762;2023-03-14T16:42:37;66.07;;;27.93;;
76459;SDS011;65299;46.084;18.762;2023-03-14T16:45:37;68.20;;;29.23;;
76459;SDS011;65299;46.084;18.762;2023-03-14T16:48:38;66.13;;;30.43;;
76459;SDS011;65299;46.084;18.762;2023-03-14T16:51:38;65.13;;;30.27;;
76459;SDS011;65299;46.084;18.762;2023-03-14T16:54:39;51.88;;;24.73;;
76459;SDS011;65299;46.084;18.762;2023-03-14T16:57:40;54.57;;;25.80;;
76459;SDS011;65299;46.084;18.762;2023-03-14T17:00:40;51.77;;;25.97;;
76459;SDS011;65299;46.084;18.762;2023-03-14T17:03:45;58.15;;;27.58;;
76459;SDS011;65299;46.084;18.762;2023-03-14T17:06:47;43.13;;;21.73;;
76459;SDS011;65299;46.084;18.762;2023-03-14T17:09:47;31.83;;;17.23;;
76459;SDS011;65299;46.084;18.762;2023-03-14T17:12:48;35.40;;;19.37;;
76459;SDS011;65299;46.084;18.762;2023-03-14T17:15:51;38.00;;;21.20;;
76459;SDS011;65299;46.084;18.762;2023-03-14T17:18:52;27.57;;;15.67;;
76459;SDS011;65299;46.084;18.762;2023-03-14T17:21:53;32.30;;;17.17;;
76459;SDS011;65299;46.084;18.762;2023-03-14T17:24:53;33.00;;;15.90;;
76459;SDS011;65299;46.084;18.762;2023-03-14T17:27:54;28.38;;;14.25;;
76459;SDS011;65299;46.084;18.762;2023-03-14T17:31:27;32.80;;;16.37;;
76459;SDS011;65299;46.084;18.762;2023-03-14T17:34:22;53.38;;;22.65;;
76459;SDS011;65299;46.084;18.762;2023-03-14T17:37:23;24.67;;;12.20;;
76459;SDS011;65299;46.084;18.762;2023-03-14T17:40:23;16.17;;;9.40;;
76459;SDS011;65299;46.084;18.762;2023-03-14T17:43:24;17.27;;;7.75;;
76459;SDS011;65299;46.084;18.762;2023-03-14T17:46:24;8.23;;;3.90;;
76459;SDS011;65299;46.084;18.762;2023-03-14T17:49:26;7.07;;;4.07;;
76459;SDS011;65299;46.084;18.762;2023-03-14T17:52:26;5.33;;;2.97;;
76459;SDS011;65299;46.084;18.762;2023-03-14T17:55:27;7.47;;;2.03;;
76459;SDS011;65299;46.084;18.762;2023-03-14T17:58:27;4.37;;;2.00;;
76459;SDS011;65299;46.084;18.762;2023-03-14T18:01:29;4.85;;;1.80;;
76459;SDS011;65299;46.084;18.762;2023-03-14T18:04:30;7.00;;;3.50;;
76459;SDS011;65299;46.084;18.762;2023-03-14T18:07:34;9.53;;;2.33;;
76459;SDS011;65299;46.084;18.762;2023-03-14T18:10:35;5.97;;;2.15;;
76459;SDS011;65299;46.084;18.762;2023-03-14T18:13:35;5.03;;;2.20;;
76459;SDS011;65299;46.084;18.762;2023-03-14T18:16:37;4.85;;;1.90;;
76459;SDS011;65299;46.084;18.762;2023-03-14T18:19:38;3.60;;;1.63;;
76459;SDS011;65299;46.084;18.762;2023-03-14T18:22:39;5.27;;;2.27;;
76459;SDS011;65299;46.084;18.762;2023-03-14T18:25:41;8.80;;;3.65;;
76459;SDS011;65299;46.084;18.762;2023-03-14T18:28:41;6.67;;;3.20;;
76459;SDS011;65299;46.084;18.762;2023-03-14T18:31:42;6.30;;;2.88;;
76459;SDS011;65299;46.084;18.762;2023-03-14T18:34:43;5.60;;;2.90;;
76459;SDS011;65299;46.084;18.762;2023-03-14T18:37:44;5.53;;;2.97;;
76459;SDS011;65299;46.084;18.762;2023-03-14T18:40:45;6.80;;;2.67;;
76459;SDS011;65299;46.084;18.762;2023-03-14T18:43:45;4.00;;;2.38;;
76459;SDS011;65299;46.084;18.762;2023-03-14T18:46:46;6.35;;;2.60;;
76459;SDS011;65299;46.084;18.762;2023-03-14T18:49:47;3.53;;;1.90;;
76459;SDS011;65299;46.084;18.762;2023-03-14T18:52:47;6.40;;;2.00;;
76459;SDS011;65299;46.084;18.762;2023-03-14T18:55:48;4.13;;;2.00;;
76459;SDS011;65299;46.084;18.762;2023-03-14T18:58:48;7.70;;;2.30;;